createdAt,value
2022-09-15T00:02:35.557Z,16.80
2022-09-15T00:05:22.642Z,16.80
2022-09-15T00:07:57.228Z,16.80
2022-09-15T00:10:39.620Z,16.80
2022-09-15T00:13:28.455Z,16.80
2022-09-15T00:16:13.533Z,16.80
2022-09-15T00:18:54.177Z,16.80
2022-09-15T00:21:30.504Z,16.80
2022-09-15T00:24:05.109Z,16.80
2022-09-15T00:26:51.463Z,16.80
2022-09-15T00:29:39.772Z,16.80
2022-09-15T00:32:14.082Z,16.90
2022-09-15T00:35:08.638Z,16.80
2022-09-15T00:37:57.830Z,16.80
2022-09-15T00:40:33.983Z,16.80
2022-09-15T00:43:10.967Z,16.80
2022-09-15T00:45:58.704Z,16.80
2022-09-15T00:49:00.503Z,16.80
2022-09-15T00:52:07.694Z,16.70
2022-09-15T00:55:11.749Z,16.80
2022-09-15T00:58:37.634Z,16.70
2022-09-15T01:01:21.613Z,16.70
2022-09-15T01:03:58.509Z,16.70
2022-09-15T01:06:47.518Z,16.70
2022-09-15T01:09:45.877Z,16.60
2022-09-15T01:12:39.831Z,16.60
2022-09-15T01:15:23.192Z,16.60
2022-09-15T01:18:13.398Z,16.50
2022-09-15T01:21:19.852Z,16.50
2022-09-15T01:24:20.266Z,16.50
2022-09-15T01:27:42.687Z,16.60
2022-09-15T01:30:24.318Z,16.40
2022-09-15T01:33:17.821Z,16.60
2022-09-15T01:36:13.161Z,16.60
2022-09-15T01:38:56.774Z,16.40
2022-09-15T01:41:34.879Z,16.40
2022-09-15T01:44:11.101Z,16.50
2022-09-15T01:46:57.317Z,16.40
2022-09-15T01:49:33.278Z,16.20
2022-09-15T01:52:09.879Z,16.10
2022-09-15T01:54:54.467Z,16.40
2022-09-15T01:57:30.132Z,16.30
2022-09-15T02:00:07.201Z,16.20
2022-09-15T02:02:57.131Z,16.30
2022-09-15T02:05:35.747Z,16.30
2022-09-15T02:08:32.321Z,16.30
2022-09-15T02:11:16.319Z,16.40
2022-09-15T02:14:18.266Z,16.40
2022-09-15T02:16:56.277Z,16.40
2022-09-15T02:19:38.271Z,16.50
2022-09-15T02:22:25.048Z,16.40
2022-09-15T02:25:19.463Z,16.30
2022-09-15T02:28:11.399Z,16.20
2022-09-15T02:31:27.732Z,16.20
2022-09-15T02:34:12.459Z,16.30
2022-09-15T02:36:50.156Z,16.30
2022-09-15T02:39:28.638Z,16.30
2022-09-15T02:42:04.391Z,16.30
2022-09-15T02:44:39.308Z,16.30
2022-09-15T02:47:15.427Z,16.20
2022-09-15T02:49:57.833Z,16.20
2022-09-15T02:52:34.021Z,16.30
2022-09-15T02:55:10.367Z,16.40
2022-09-15T02:57:46.226Z,16.40
2022-09-15T03:00:57.923Z,16.60
2022-09-15T03:03:32.958Z,16.60
2022-09-15T03:06:18.351Z,16.60
2022-09-15T03:09:11.873Z,16.70
2022-09-15T03:11:58.423Z,16.70
2022-09-15T03:14:40.223Z,16.70
2022-09-15T03:17:16.004Z,16.70
2022-09-15T03:19:50.903Z,16.70
2022-09-15T03:22:25.646Z,16.70
2022-09-15T03:25:03.733Z,16.80
2022-09-15T03:27:51.720Z,16.70
2022-09-15T03:30:33.648Z,16.80
2022-09-15T03:33:16.248Z,16.80
2022-09-15T03:35:53.149Z,16.80
2022-09-15T03:38:53.128Z,16.80
2022-09-15T03:41:29.787Z,16.80
2022-09-15T03:44:16.082Z,16.80
2022-09-15T03:46:51.913Z,16.80
2022-09-15T03:49:27.659Z,16.80
2022-09-15T03:52:17.030Z,16.90
2022-09-15T03:54:51.802Z,16.90
2022-09-15T03:57:28.643Z,16.80
2022-09-15T04:00:07.803Z,16.80
2022-09-15T04:02:52.110Z,16.80
2022-09-15T04:05:29.155Z,16.80
2022-09-15T04:08:28.138Z,16.80
2022-09-15T04:11:06.806Z,16.80
2022-09-15T04:14:02.888Z,16.80
2022-09-15T04:16:38.191Z,16.80
2022-09-15T04:19:12.622Z,16.70
2022-09-15T04:21:48.927Z,16.70
2022-09-15T04:24:27.554Z,16.80
2022-09-15T04:27:02.792Z,16.70
2022-09-15T04:29:40.400Z,16.70
2022-09-15T04:32:22.191Z,16.70
2022-09-15T04:34:57.195Z,16.70
2022-09-15T04:38:12.370Z,16.80
2022-09-15T04:45:46.676Z,16.80
2022-09-15T04:51:40.607Z,16.70
2022-09-15T04:54:21.623Z,16.80
2022-09-15T04:57:39.973Z,16.80
2022-09-15T05:00:22.458Z,16.80
2022-09-15T05:03:29.492Z,16.90
2022-09-15T05:06:08.910Z,16.80
2022-09-15T05:08:59.546Z,16.80
2022-09-15T05:12:02.578Z,16.80
2022-09-15T05:14:38.254Z,16.80
2022-09-15T05:17:35.075Z,16.80
2022-09-15T05:20:11.603Z,16.90
2022-09-15T05:23:18.246Z,16.80
2022-09-15T05:26:13.809Z,16.90
2022-09-15T05:29:43.811Z,16.90
2022-09-15T05:32:46.743Z,16.90
2022-09-15T05:39:41.556Z,16.90
2022-09-15T05:42:25.415Z,17.00
2022-09-15T05:45:01.650Z,17.00
2022-09-15T05:47:49.118Z,17.00
2022-09-15T05:50:54.511Z,17.00
2022-09-15T05:53:38.862Z,17.00
2022-09-15T06:00:40.546Z,17.00
2022-09-15T06:03:24.477Z,17.10
2022-09-15T06:06:02.409Z,17.10
2022-09-15T06:09:00.995Z,17.10
2022-09-15T06:11:39.677Z,17.10
2022-09-15T06:14:53.191Z,17.10
2022-09-15T06:17:56.055Z,17.00
2022-09-15T06:20:52.407Z,17.10
2022-09-15T06:23:26.805Z,17.10
2022-09-15T06:26:28.412Z,17.20
2022-09-15T06:29:05.857Z,17.20
2022-09-15T06:31:52.368Z,17.30
2022-09-15T06:34:28.974Z,17.30
2022-09-15T06:37:21.695Z,17.30
2022-09-15T06:39:56.612Z,17.20
2022-09-15T06:42:33.598Z,17.20
2022-09-15T06:45:15.638Z,17.20
2022-09-15T06:48:20.221Z,17.20
2022-09-15T06:51:06.929Z,17.20
2022-09-15T06:53:58.311Z,17.20
2022-09-15T06:56:37.638Z,17.20
2022-09-15T06:59:13.264Z,17.20
2022-09-15T07:01:54.295Z,17.30
2022-09-15T07:04:29.282Z,17.40
2022-09-15T07:07:39.588Z,17.40
2022-09-15T07:10:20.055Z,17.40
2022-09-15T07:13:36.549Z,17.40
2022-09-15T07:16:16.863Z,17.40
2022-09-15T07:22:58.272Z,17.40
2022-09-15T07:25:40.532Z,17.40
2022-09-15T07:28:16.542Z,17.40
2022-09-15T07:30:53.699Z,17.30
2022-09-15T07:33:33.675Z,17.30
2022-09-15T07:36:16.009Z,17.40
2022-09-15T07:38:51.751Z,17.40
2022-09-15T07:42:19.382Z,17.40
2022-09-15T07:49:39.231Z,17.60
2022-09-15T07:56:09.423Z,17.80
2022-09-15T07:58:58.639Z,17.90
2022-09-15T08:01:45.589Z,18.00
2022-09-15T08:04:27.831Z,18.10
2022-09-15T08:07:48.675Z,18.20
2022-09-15T08:11:09.598Z,18.30
2022-09-15T08:13:48.285Z,18.40
2022-09-15T08:17:16.661Z,18.50
2022-09-15T08:24:28.200Z,18.70
2022-09-15T08:27:27.405Z,18.60
2022-09-15T08:30:03.930Z,18.50
2022-09-15T08:33:33.937Z,18.60
2022-09-15T08:36:16.293Z,18.70
2022-09-15T08:39:25.199Z,18.70
2022-09-15T08:42:52.850Z,18.60
2022-09-15T08:45:49.348Z,18.60
2022-09-15T08:48:31.093Z,18.60
2022-09-15T08:51:20.925Z,18.70
2022-09-15T08:54:02.167Z,18.70
2022-09-15T08:56:37.621Z,18.80
2022-09-15T08:59:35.194Z,18.90
2022-09-15T09:02:59.815Z,19.20
2022-09-15T09:05:45.994Z,19.70
2022-09-15T09:08:46.930Z,19.90
2022-09-15T09:12:03.438Z,19.90
2022-09-15T09:14:57.728Z,19.80
2022-09-15T09:17:50.484Z,19.70
2022-09-15T09:21:19.982Z,19.60
2022-09-15T09:24:05.148Z,19.50
2022-09-15T09:26:40.085Z,19.70
2022-09-15T09:29:19.170Z,19.70
2022-09-15T09:32:18.675Z,19.80
2022-09-15T09:38:51.086Z,19.40
2022-09-15T09:42:10.192Z,19.40
2022-09-15T09:44:44.421Z,19.50
2022-09-15T09:48:19.727Z,19.70
2022-09-15T09:51:55.720Z,20.00
2022-09-15T09:55:02.799Z,20.00
2022-09-15T10:05:25.423Z,20.70
2022-09-15T10:08:22.249Z,20.30
2022-09-15T10:11:04.439Z,20.60
2022-09-15T10:13:53.450Z,20.80
2022-09-15T10:16:35.967Z,20.80
2022-09-15T10:22:47.173Z,20.80
2022-09-15T10:25:59.034Z,20.60
2022-09-15T10:29:17.657Z,20.30
2022-09-15T10:31:58.094Z,20.30
2022-09-15T10:34:33.570Z,20.30
2022-09-15T10:37:19.151Z,20.20
2022-09-15T10:44:11.255Z,20.20
2022-09-15T10:46:55.703Z,20.30
2022-09-15T10:49:49.792Z,20.50
2022-09-15T10:52:33.228Z,20.80
2022-09-15T10:55:37.057Z,20.90
2022-09-15T10:58:45.803Z,20.80
2022-09-15T11:01:51.808Z,20.50
2022-09-15T11:05:17.925Z,20.60
2022-09-15T11:08:09.076Z,20.60
2022-09-15T11:11:11.020Z,20.20
2022-09-15T11:14:07.665Z,19.70
2022-09-15T11:16:55.380Z,19.00
2022-09-15T11:20:09.760Z,18.40
2022-09-15T11:22:49.909Z,17.90
2022-09-15T11:25:42.674Z,17.40
2022-09-15T11:28:40.689Z,17.00
2022-09-15T11:31:27.387Z,16.80
2022-09-15T11:34:28.061Z,16.40
2022-09-15T11:37:08.094Z,16.00
2022-09-15T11:43:42.969Z,15.40
2022-09-15T11:46:57.966Z,15.10
2022-09-15T11:49:55.678Z,15.10
2022-09-15T11:52:45.031Z,15.20
2022-09-15T11:55:27.561Z,15.00
2022-09-15T11:58:22.115Z,14.70
2022-09-15T12:01:08.994Z,14.90
2022-09-15T12:03:50.233Z,14.90
2022-09-15T12:10:38.857Z,14.70
2022-09-15T12:17:36.283Z,15.10
2022-09-15T12:24:31.655Z,14.90
2022-09-15T12:39:00.120Z,14.80
2022-09-15T12:41:48.702Z,14.90
2022-09-15T12:44:51.426Z,15.10
2022-09-15T12:47:34.450Z,14.80
2022-09-15T12:50:56.334Z,14.70
2022-09-15T12:57:29.347Z,14.70
2022-09-15T13:00:35.966Z,14.70
2022-09-15T13:03:30.045Z,14.70
2022-09-15T13:06:20.801Z,14.80
2022-09-15T13:08:58.170Z,14.80
2022-09-15T13:11:39.527Z,14.80
2022-09-15T13:14:44.360Z,14.90
2022-09-15T13:17:37.541Z,14.90
2022-09-15T13:20:51.845Z,15.00
2022-09-15T13:27:25.181Z,14.90
2022-09-15T13:30:12.132Z,14.90
2022-09-15T13:33:06.077Z,14.90
2022-09-15T13:36:15.326Z,14.90
2022-09-15T13:39:17.827Z,14.90
2022-09-15T13:42:32.051Z,15.00
2022-09-15T13:45:47.124Z,15.10
2022-09-15T13:48:43.832Z,15.20
2022-09-15T13:51:30.525Z,15.30
2022-09-15T13:54:08.408Z,15.40
2022-09-15T14:01:14.828Z,15.50
2022-09-15T14:04:35.127Z,15.60
2022-09-15T14:10:59.694Z,16.20
2022-09-15T14:13:36.159Z,16.30
2022-09-15T14:16:51.153Z,16.40
2022-09-15T14:19:41.457Z,16.50
2022-09-15T14:25:38.923Z,16.60
2022-09-15T14:28:44.520Z,16.70
2022-09-15T14:31:53.236Z,16.80
2022-09-15T14:34:43.574Z,16.70
2022-09-15T14:37:49.008Z,16.80
2022-09-15T14:40:30.983Z,16.80
2022-09-15T14:54:05.122Z,16.60
2022-09-15T15:00:40.398Z,16.40
2022-09-15T15:03:34.541Z,16.50
2022-09-15T15:06:47.841Z,16.60
2022-09-15T15:13:37.523Z,16.50
2022-09-15T15:16:21.922Z,16.50
2022-09-15T15:19:39.744Z,16.50
2022-09-15T15:26:35.604Z,16.60
2022-09-15T15:43:37.970Z,16.60
2022-09-15T15:46:47.484Z,16.70
2022-09-15T15:49:46.303Z,16.70
2022-09-15T15:56:25.827Z,16.60
2022-09-15T15:59:04.841Z,16.60
2022-09-15T16:01:48.205Z,16.40
2022-09-15T16:08:23.620Z,16.20
2022-09-15T16:14:45.868Z,16.10
2022-09-15T16:28:14.989Z,15.80
2022-09-15T16:30:54.503Z,15.80
2022-09-15T16:33:33.453Z,15.70
2022-09-15T16:36:15.605Z,15.70
2022-09-15T16:38:53.791Z,15.60
2022-09-15T16:41:29.210Z,15.60
2022-09-15T16:47:27.843Z,15.50
2022-09-15T16:50:04.573Z,15.50
2022-09-15T16:52:46.622Z,15.40
2022-09-15T16:55:31.780Z,15.30
2022-09-15T16:58:45.772Z,15.30
2022-09-15T17:01:44.911Z,15.20
2022-09-15T17:04:23.000Z,15.20
2022-09-15T17:06:57.898Z,15.10
2022-09-15T17:09:32.919Z,15.00
2022-09-15T17:12:57.738Z,14.90
2022-09-15T17:15:38.316Z,14.90
2022-09-15T17:22:09.956Z,14.60
2022-09-15T17:25:35.429Z,14.60
2022-09-15T17:28:11.834Z,14.50
2022-09-15T17:34:33.722Z,14.20
2022-09-15T17:41:17.926Z,14.30
2022-09-15T17:47:59.325Z,14.20
2022-09-15T17:50:39.595Z,14.30
2022-09-15T17:53:35.745Z,14.20
2022-09-15T17:56:44.867Z,14.30
2022-09-15T18:00:03.945Z,14.20
2022-09-15T18:03:06.458Z,14.40
2022-09-15T18:09:58.066Z,14.30
2022-09-15T18:12:45.321Z,14.30
2022-09-15T18:23:16.212Z,14.30
2022-09-15T18:27:02.005Z,14.30
2022-09-15T18:29:42.062Z,14.30
2022-09-15T18:32:47.081Z,14.30
2022-09-15T18:36:20.909Z,14.40
2022-09-15T18:42:54.310Z,14.40
2022-09-15T18:53:27.302Z,14.50
2022-09-15T18:56:20.241Z,14.50
2022-09-15T18:59:28.640Z,14.50
2022-09-15T19:05:51.398Z,14.50
2022-09-15T19:08:37.600Z,14.50
2022-09-15T19:11:41.165Z,14.60
2022-09-15T19:14:36.473Z,14.70
2022-09-15T19:17:22.593Z,14.50
2022-09-15T19:27:43.642Z,14.40
2022-09-15T19:34:12.016Z,14.50
2022-09-15T19:36:46.883Z,14.30
2022-09-15T19:39:28.752Z,14.40
2022-09-15T19:42:06.148Z,14.20
2022-09-15T19:44:58.308Z,14.30
2022-09-15T19:47:36.006Z,14.20
2022-09-15T19:50:12.113Z,14.10
2022-09-15T19:53:16.955Z,14.10
2022-09-15T19:55:52.809Z,14.00
2022-09-15T19:58:48.128Z,13.80
2022-09-15T20:01:33.186Z,13.50
2022-09-15T20:04:23.576Z,13.60
2022-09-15T20:06:59.268Z,13.50
2022-09-15T20:09:34.693Z,13.50
2022-09-15T20:12:09.717Z,13.60
2022-09-15T20:18:46.823Z,13.70
2022-09-15T20:21:50.686Z,13.40
2022-09-15T20:24:29.810Z,13.30
2022-09-15T20:27:17.148Z,13.40
2022-09-15T20:29:58.450Z,13.20
2022-09-15T20:32:35.019Z,13.20
2022-09-15T20:35:12.233Z,13.30
2022-09-15T20:37:53.012Z,13.20
2022-09-15T20:40:28.926Z,13.10
2022-09-15T20:43:05.960Z,12.90
2022-09-15T20:45:55.939Z,13.10
2022-09-15T20:48:36.455Z,13.00
2022-09-15T20:51:43.287Z,12.80
2022-09-15T20:54:41.079Z,12.70
2022-09-15T20:57:28.215Z,12.70
2022-09-15T21:01:02.800Z,12.90
2022-09-15T21:03:48.816Z,12.90
2022-09-15T21:06:30.223Z,12.80
2022-09-15T21:09:30.422Z,12.50
2022-09-15T21:13:01.664Z,12.60
2022-09-15T21:15:52.716Z,12.60
2022-09-15T21:18:30.096Z,12.70
2022-09-15T21:21:09.944Z,12.50
2022-09-15T21:24:01.208Z,12.30
2022-09-15T21:27:19.960Z,12.30
2022-09-15T21:29:58.441Z,12.20
2022-09-15T21:32:46.755Z,12.30
2022-09-15T21:35:50.539Z,12.20
2022-09-15T21:38:28.963Z,12.00
2022-09-15T21:41:03.709Z,11.90
2022-09-15T21:43:43.372Z,12.00
2022-09-15T21:46:30.078Z,11.90
2022-09-15T21:49:58.798Z,11.90
2022-09-15T21:53:22.136Z,11.80
2022-09-15T21:56:05.844Z,12.00
2022-09-15T21:58:43.296Z,11.70
2022-09-15T22:01:31.887Z,11.60
2022-09-15T22:04:07.894Z,11.60
2022-09-15T22:06:43.389Z,11.70
2022-09-15T22:09:28.406Z,11.60
2022-09-15T22:12:17.016Z,11.50
2022-09-15T22:15:12.710Z,11.40
2022-09-15T22:18:05.468Z,11.60
2022-09-15T22:20:40.867Z,11.40
2022-09-15T22:23:34.387Z,11.40
2022-09-15T22:26:12.617Z,11.50
2022-09-15T22:28:48.237Z,11.40
2022-09-15T22:31:30.658Z,11.50
2022-09-15T22:34:34.325Z,11.20
2022-09-15T22:37:09.635Z,11.40
2022-09-15T22:40:22.169Z,11.20
2022-09-15T22:42:56.810Z,11.30
2022-09-15T22:45:35.092Z,11.10
2022-09-15T22:48:28.446Z,11.10
2022-09-15T22:51:04.740Z,11.10
2022-09-15T22:54:03.227Z,10.90
2022-09-15T22:56:37.656Z,11.20
2022-09-15T22:59:14.088Z,11.10
2022-09-15T23:01:49.409Z,11.20
2022-09-15T23:04:39.402Z,11.10
2022-09-15T23:07:14.550Z,11.00
2022-09-15T23:09:49.769Z,10.90
2022-09-15T23:12:24.618Z,11.00
2022-09-15T23:15:04.758Z,11.00
2022-09-15T23:17:39.531Z,10.90
2022-09-15T23:20:24.782Z,11.00
2022-09-15T23:23:04.979Z,11.00
2022-09-15T23:25:46.830Z,11.20
2022-09-15T23:28:21.992Z,11.20
2022-09-15T23:31:00.572Z,11.40
2022-09-15T23:33:46.927Z,11.40
2022-09-15T23:36:26.695Z,11.30
2022-09-15T23:39:17.990Z,11.30
2022-09-15T23:41:53.217Z,11.50
2022-09-15T23:44:52.667Z,11.40
2022-09-15T23:47:28.656Z,11.30
2022-09-15T23:50:16.631Z,11.30
2022-09-15T23:53:18.659Z,11.40
2022-09-15T23:55:58.403Z,11.50
2022-09-15T23:59:04.745Z,11.40
